createdAt,value
2023-03-12T00:02:24.216Z,98053.88
2023-03-12T00:04:50.786Z,98059.75
2023-03-12T00:07:17.295Z,98052.91
2023-03-12T00:09:43.902Z,98053.50
2023-03-12T00:12:10.436Z,98047.28
2023-03-12T00:14:37.283Z,98051.44
2023-03-12T00:17:03.838Z,98046.63
2023-03-12T00:19:30.388Z,98044.88
2023-03-12T00:21:56.900Z,98053.47
2023-03-12T00:24:23.407Z,98053.41
2023-03-12T00:26:49.875Z,98046.78
2023-03-12T00:29:16.385Z,98043.72
2023-03-12T00:31:42.994Z,98043.13
2023-03-12T00:34:09.764Z,98036.28
2023-03-12T00:36:36.463Z,98027.91
2023-03-12T00:39:03.080Z,98040.25
2023-03-12T00:41:30.402Z,98043.31
2023-03-12T00:44:02.397Z,98031.00
2023-03-12T00:46:29.294Z,98029.84
2023-03-12T00:48:55.846Z,98029.56
2023-03-12T00:51:22.528Z,98028.59
2023-03-12T00:53:49.148Z,98034.09
2023-03-12T00:56:15.719Z,98036.38
2023-03-12T00:58:43.207Z,98039.13
2023-03-12T01:01:10.168Z,98033.59
2023-03-12T01:03:36.900Z,98029.06
2023-03-12T01:06:03.838Z,98024.41
2023-03-12T01:08:58.740Z,98022.00
2023-03-12T01:11:25.235Z,98017.72
2023-03-12T01:13:51.767Z,98017.59
2023-03-12T01:16:28.083Z,98014.06
2023-03-12T01:18:57.237Z,98011.91
2023-03-12T01:21:27.901Z,98009.97
2023-03-12T01:23:56.143Z,98011.63
2023-03-12T01:26:23.353Z,98006.03
2023-03-12T01:28:50.876Z,98003.91
2023-03-12T01:31:19.587Z,98008.00
2023-03-12T01:33:51.215Z,98013.81
2023-03-12T01:36:28.092Z,98022.25
2023-03-12T01:38:58.933Z,98021.06
2023-03-12T01:41:29.819Z,98023.47
2023-03-12T01:43:56.649Z,98018.16
2023-03-12T01:46:32.286Z,98017.59
2023-03-12T01:49:29.924Z,98015.88
2023-03-12T01:52:09.346Z,98010.19
2023-03-12T01:54:42.991Z,98009.19
2023-03-12T01:57:26.574Z,98003.72
2023-03-12T02:00:01.110Z,98003.47
2023-03-12T02:02:29.806Z,98010.69
2023-03-12T02:05:31.016Z,97993.91
2023-03-12T02:07:58.332Z,97996.16
2023-03-12T02:10:26.379Z,97984.22
2023-03-12T02:12:53.666Z,97980.88
2023-03-12T02:15:20.344Z,97972.28
2023-03-12T02:17:46.928Z,97971.16
2023-03-12T02:21:01.779Z,97968.41
2023-03-12T02:24:00.668Z,97965.53
2023-03-12T02:26:29.945Z,97967.13
2023-03-12T02:28:59.873Z,97970.16
2023-03-12T02:31:37.563Z,97960.91
2023-03-12T02:34:04.135Z,97966.84
2023-03-12T02:36:30.628Z,97970.25
2023-03-12T02:38:57.533Z,97961.81
2023-03-12T02:41:37.400Z,97961.38
2023-03-12T02:44:11.443Z,97952.38
2023-03-12T02:46:46.556Z,97952.38
2023-03-12T02:49:14.197Z,97947.63
2023-03-12T02:51:44.284Z,97945.19
2023-03-12T02:54:13.292Z,97940.44
2023-03-12T02:56:41.007Z,97941.66
2023-03-12T02:59:10.089Z,97943.06
2023-03-12T03:01:37.149Z,97939.28
2023-03-12T03:04:06.810Z,97934.09
2023-03-12T03:06:36.226Z,97938.56
2023-03-12T03:09:03.698Z,97945.06
2023-03-12T03:11:30.262Z,97957.00
2023-03-12T03:13:57.022Z,97948.31
2023-03-12T03:16:24.621Z,97945.75
2023-03-12T03:18:52.027Z,97959.78
2023-03-12T03:21:18.721Z,97949.78
2023-03-12T03:23:50.535Z,97951.94
2023-03-12T03:26:21.714Z,97951.81
2023-03-12T03:28:48.882Z,97950.44
2023-03-12T03:31:15.876Z,97962.78
2023-03-12T03:33:42.934Z,97952.22
2023-03-12T03:36:10.586Z,97947.47
2023-03-12T03:38:37.383Z,97931.56
2023-03-12T03:41:04.286Z,97925.72
2023-03-12T03:43:30.867Z,97939.28
2023-03-12T03:46:05.830Z,97946.06
2023-03-12T03:48:33.373Z,97950.53
2023-03-12T03:51:02.791Z,97950.16
2023-03-12T03:53:29.514Z,97942.88
2023-03-12T03:55:56.057Z,97943.47
2023-03-12T03:58:23.147Z,97945.69
2023-03-12T04:00:49.902Z,97924.69
2023-03-12T04:03:16.515Z,97922.25
2023-03-12T04:05:45.152Z,97931.19
2023-03-12T04:08:14.877Z,97936.66
2023-03-12T04:10:41.467Z,97933.78
2023-03-12T04:13:08.035Z,97932.94
2023-03-12T04:15:34.551Z,97921.63
2023-03-12T04:18:01.014Z,97913.44
2023-03-12T04:20:27.577Z,97913.31
2023-03-12T04:22:54.070Z,97905.78
2023-03-12T04:25:20.564Z,97906.44
2023-03-12T04:27:47.077Z,97910.41
2023-03-12T04:30:14.253Z,97900.63
2023-03-12T04:32:40.745Z,97913.72
2023-03-12T04:35:07.640Z,97903.22
2023-03-12T04:37:34.271Z,97898.31
2023-03-12T04:40:04.696Z,97895.56
2023-03-12T04:42:31.412Z,97895.44
2023-03-12T04:44:57.892Z,97899.34
2023-03-12T04:47:24.375Z,97890.59
2023-03-12T04:49:50.846Z,97894.09
2023-03-12T04:52:17.694Z,97891.81
2023-03-12T04:54:47.524Z,97892.94
2023-03-12T04:57:14.569Z,97895.59
2023-03-12T04:59:41.074Z,97901.13
2023-03-12T05:02:07.736Z,97899.13
2023-03-12T05:04:34.250Z,97892.56
2023-03-12T05:07:00.934Z,97884.97
2023-03-12T05:09:27.640Z,97894.00
2023-03-12T05:11:54.273Z,97888.09
2023-03-12T05:14:21.044Z,97886.75
2023-03-12T05:16:47.585Z,97897.03
2023-03-12T05:19:14.992Z,97898.25
2023-03-12T05:21:44.569Z,97885.38
2023-03-12T05:24:11.851Z,97878.78
2023-03-12T05:26:40.037Z,97868.75
2023-03-12T05:29:06.691Z,97871.69
2023-03-12T05:31:35.289Z,97870.31
2023-03-12T05:34:04.126Z,97871.69
2023-03-12T05:36:30.773Z,97868.44
2023-03-12T05:38:57.566Z,97864.00
2023-03-12T05:41:29.202Z,97865.97
2023-03-12T05:43:57.547Z,97880.16
2023-03-12T05:46:27.520Z,97877.06
2023-03-12T05:48:54.467Z,97868.28
2023-03-12T05:51:21.584Z,97870.84
2023-03-12T05:53:48.185Z,97873.97
2023-03-12T05:56:17.538Z,97870.94
2023-03-12T05:58:47.261Z,97859.63
2023-03-12T06:01:24.963Z,97862.81
2023-03-12T06:03:51.477Z,97855.75
2023-03-12T06:06:18.796Z,97846.84
2023-03-12T06:08:46.052Z,97846.59
2023-03-12T06:11:13.238Z,97853.78
2023-03-12T06:13:40.376Z,97834.13
2023-03-12T06:16:25.675Z,97833.81
2023-03-12T06:19:02.591Z,97835.56
2023-03-12T06:21:33.431Z,97831.66
2023-03-12T06:24:01.034Z,97826.97
2023-03-12T06:26:28.848Z,97824.81
2023-03-12T06:28:55.762Z,97822.72
2023-03-12T06:31:23.203Z,97821.53
2023-03-12T06:33:50.194Z,97823.25
2023-03-12T06:36:17.055Z,97826.53
2023-03-12T06:38:43.689Z,97824.78
2023-03-12T06:41:17.687Z,97814.31
2023-03-12T06:43:45.689Z,97803.66
2023-03-12T06:46:21.602Z,97801.69
2023-03-12T06:48:48.697Z,97807.38
2023-03-12T06:51:17.436Z,97796.19
2023-03-12T06:53:45.971Z,97801.94
2023-03-12T06:56:14.113Z,97796.63
2023-03-12T06:58:41.845Z,97791.63
2023-03-12T07:01:09.028Z,97802.50
2023-03-12T07:03:35.805Z,97805.38
2023-03-12T07:06:02.808Z,97813.38
2023-03-12T07:08:30.993Z,97811.84
2023-03-12T07:11:01.638Z,97809.81
2023-03-12T07:13:28.740Z,97805.81
2023-03-12T07:15:55.330Z,97811.59
2023-03-12T07:18:22.220Z,97801.59
2023-03-12T07:20:48.820Z,97813.97
2023-03-12T07:23:15.415Z,97822.69
2023-03-12T07:25:43.588Z,97829.34
2023-03-12T07:28:12.545Z,97838.47
2023-03-12T07:30:40.136Z,97836.28
2023-03-12T07:33:12.472Z,97828.97
2023-03-12T07:35:39.965Z,97826.88
2023-03-12T07:38:08.034Z,97820.91
2023-03-12T07:40:36.391Z,97807.50
2023-03-12T07:43:06.826Z,97810.59
2023-03-12T07:45:33.369Z,97803.72
2023-03-12T07:47:59.863Z,97818.44
2023-03-12T07:50:26.427Z,97820.47
2023-03-12T07:52:52.950Z,97816.94
2023-03-12T07:55:19.678Z,97806.91
2023-03-12T07:57:46.797Z,97804.41
2023-03-12T08:00:15.317Z,97805.63
2023-03-12T08:02:41.968Z,97807.72
2023-03-12T08:05:08.819Z,97812.38
2023-03-12T08:07:35.928Z,97820.38
2023-03-12T08:10:06.711Z,97827.31
2023-03-12T08:12:34.101Z,97825.59
2023-03-12T08:15:00.595Z,97824.50
2023-03-12T08:17:27.093Z,97815.06
2023-03-12T08:19:54.161Z,97815.06
2023-03-12T08:22:20.727Z,97820.91
2023-03-12T08:24:47.667Z,97815.34
2023-03-12T08:27:14.290Z,97804.50
2023-03-12T08:29:41.937Z,97800.84
2023-03-12T08:32:10.802Z,97806.44
2023-03-12T08:34:38.013Z,97794.50
2023-03-12T08:37:05.911Z,97801.09
2023-03-12T08:39:33.222Z,97797.72
2023-03-12T08:42:00.110Z,97802.19
2023-03-12T08:44:27.045Z,97806.69
2023-03-12T08:46:53.701Z,97809.13
2023-03-12T08:49:21.691Z,97804.59
2023-03-12T08:51:48.847Z,97801.41
2023-03-12T08:54:15.404Z,97797.97
2023-03-12T08:56:43.462Z,97801.63
2023-03-12T08:59:13.798Z,97795.13
2023-03-12T09:01:43.604Z,97796.88
2023-03-12T09:04:10.837Z,97801.56
2023-03-12T09:06:38.383Z,97800.78
2023-03-12T09:09:05.640Z,97795.00
2023-03-12T09:11:34.652Z,97794.28
2023-03-12T09:14:42.444Z,97792.69
2023-03-12T09:16:49.788Z,97791.69
2023-03-12T09:19:16.702Z,97792.31
2023-03-12T09:21:43.517Z,97790.16
2023-03-12T09:24:11.475Z,97792.91
2023-03-12T09:26:38.001Z,97802.41
2023-03-12T09:29:04.691Z,97801.72
2023-03-12T09:31:31.642Z,97808.94
2023-03-12T09:33:58.136Z,97804.22
2023-03-12T09:36:24.619Z,97794.59
2023-03-12T09:38:51.133Z,97793.13
2023-03-12T09:41:23.195Z,97788.31
2023-03-12T09:44:09.147Z,97785.91
2023-03-12T09:46:48.391Z,97791.13
2023-03-12T09:49:35.164Z,97779.03
2023-03-12T09:52:16.420Z,97780.31
2023-03-12T09:54:58.927Z,97784.75
2023-03-12T09:57:28.913Z,97789.03
2023-03-12T09:59:56.961Z,97785.28
2023-03-12T10:02:43.522Z,97791.81
2023-03-12T10:05:26.422Z,97790.81
2023-03-12T10:08:17.486Z,97799.41
2023-03-12T10:11:08.469Z,97798.06
2023-03-12T10:14:16.115Z,97786.78
2023-03-12T10:17:08.654Z,97788.13
2023-03-12T10:20:20.497Z,97785.97
2023-03-12T10:23:04.659Z,97786.97
2023-03-12T10:25:48.119Z,97787.78
2023-03-12T10:28:26.035Z,97784.63
2023-03-12T10:30:59.348Z,97786.81
2023-03-12T10:33:42.544Z,97789.06
2023-03-12T10:36:19.792Z,97783.69
2023-03-12T10:38:48.611Z,97781.38
2023-03-12T10:41:26.419Z,97785.00
2023-03-12T10:43:54.780Z,97787.59
2023-03-12T10:46:46.735Z,97782.56
2023-03-12T10:49:22.064Z,97789.50
2023-03-12T10:52:17.232Z,97783.69
2023-03-12T10:54:48.012Z,97792.91
2023-03-12T10:57:16.262Z,97785.16
2023-03-12T10:59:47.640Z,97786.59
2023-03-12T11:02:43.138Z,97790.97
2023-03-12T11:05:25.880Z,97787.16
2023-03-12T11:07:52.879Z,97781.41
2023-03-12T11:10:45.636Z,97791.00
2023-03-12T11:13:38.119Z,97790.03
2023-03-12T11:16:16.612Z,97801.06
2023-03-12T11:19:03.632Z,97793.47
2023-03-12T11:21:37.001Z,97793.91
2023-03-12T11:24:11.856Z,97798.94
2023-03-12T11:26:50.303Z,97799.03
2023-03-12T11:29:39.737Z,97795.50
2023-03-12T11:32:15.632Z,97795.38
2023-03-12T11:34:43.254Z,97794.84
2023-03-12T11:37:38.129Z,97792.63
2023-03-12T11:40:15.000Z,97790.28
2023-03-12T11:43:43.656Z,97791.47
2023-03-12T11:46:41.984Z,97786.50
2023-03-12T11:49:44.981Z,97784.66
2023-03-12T11:52:55.998Z,97784.66
2023-03-12T11:55:30.561Z,97792.03
2023-03-12T11:58:37.917Z,97781.50
2023-03-12T12:01:26.261Z,97780.28
2023-03-12T12:04:45.046Z,97778.31
2023-03-12T12:07:47.763Z,97774.41
2023-03-12T12:10:47.982Z,97769.63
2023-03-12T12:13:46.854Z,97783.53
2023-03-12T12:16:37.548Z,97774.88
2023-03-12T12:19:33.849Z,97774.50
2023-03-12T12:22:25.477Z,97761.97
2023-03-12T12:25:00.736Z,97772.06
2023-03-12T12:27:36.759Z,97765.44
2023-03-12T12:30:40.764Z,97763.41
2023-03-12T12:33:39.880Z,97768.53
2023-03-12T12:36:10.555Z,97773.13
2023-03-12T12:38:44.235Z,97767.78
2023-03-12T12:41:27.391Z,97760.03
2023-03-12T12:44:01.225Z,97761.16
2023-03-12T12:47:01.242Z,97748.81
2023-03-12T12:49:49.150Z,97755.09
2023-03-12T12:52:22.373Z,97754.13
2023-03-12T12:55:11.653Z,97750.59
2023-03-12T12:57:44.947Z,97751.06
2023-03-12T13:00:25.858Z,97762.38
2023-03-12T13:02:56.360Z,97761.13
2023-03-12T13:05:52.681Z,97761.25
2023-03-12T13:08:44.793Z,97754.22
2023-03-12T13:11:20.330Z,97753.41
2023-03-12T13:14:10.572Z,97755.19
2023-03-12T13:16:45.528Z,97747.75
2023-03-12T13:19:14.797Z,97745.00
2023-03-12T13:22:10.069Z,97750.31
2023-03-12T13:25:12.430Z,97742.19
2023-03-12T13:27:42.689Z,97738.69
2023-03-12T13:30:46.354Z,97742.31
2023-03-12T13:33:18.121Z,97740.34
2023-03-12T13:36:25.830Z,97740.28
2023-03-12T13:39:29.256Z,97733.13
2023-03-12T13:41:58.349Z,97725.41
2023-03-12T13:44:27.539Z,97729.38
2023-03-12T13:47:26.426Z,97735.78
2023-03-12T13:49:58.695Z,97734.00
2023-03-12T13:52:30.713Z,97729.59
2023-03-12T13:55:24.934Z,97722.25
2023-03-12T13:57:58.426Z,97725.28
2023-03-12T14:00:37.659Z,97715.16
2023-03-12T14:03:24.860Z,97719.03
2023-03-12T14:06:00.834Z,97720.72
2023-03-12T14:08:47.968Z,97719.22
2023-03-12T14:11:33.471Z,97713.97
2023-03-12T14:14:29.586Z,97703.06
2023-03-12T14:17:00.504Z,97709.56
2023-03-12T14:19:31.452Z,97706.97
2023-03-12T14:22:06.186Z,97710.72
2023-03-12T14:24:40.367Z,97713.03
2023-03-12T14:27:17.633Z,97719.41
2023-03-12T14:29:56.720Z,97720.13
2023-03-12T14:32:39.119Z,97724.97
2023-03-12T14:35:21.868Z,97714.69
2023-03-12T14:38:05.146Z,97714.56
2023-03-12T14:41:14.334Z,97707.03
2023-03-12T14:43:43.581Z,97718.91
2023-03-12T14:46:20.574Z,97719.16
2023-03-12T14:48:50.523Z,97714.22
2023-03-12T14:51:35.361Z,97709.09
2023-03-12T14:54:03.344Z,97695.47
2023-03-12T14:56:35.845Z,97698.81
2023-03-12T14:59:33.097Z,97689.38
2023-03-12T15:02:11.222Z,97697.75
2023-03-12T15:04:38.263Z,97699.84
2023-03-12T15:07:11.274Z,97702.19
2023-03-12T15:09:38.067Z,97696.84
2023-03-12T15:12:19.349Z,97693.47
2023-03-12T15:14:47.653Z,97699.13
2023-03-12T15:17:19.328Z,97701.81
2023-03-12T15:19:47.527Z,97704.09
2023-03-12T15:22:20.873Z,97703.25
2023-03-12T15:24:48.031Z,97706.72
2023-03-12T15:27:28.570Z,97719.09
2023-03-12T15:29:58.380Z,97718.25
2023-03-12T15:32:26.865Z,97725.38
2023-03-12T15:34:59.111Z,97717.53
2023-03-12T15:37:38.620Z,97720.16
2023-03-12T15:40:23.087Z,97705.88
2023-03-12T15:42:49.882Z,97707.38
2023-03-12T15:45:43.499Z,97703.03
2023-03-12T15:48:41.128Z,97711.78
2023-03-12T15:51:36.275Z,97700.06
2023-03-12T15:54:28.294Z,97689.91
2023-03-12T15:57:10.894Z,97689.75
2023-03-12T15:59:37.541Z,97692.31
2023-03-12T16:02:04.288Z,97689.25
2023-03-12T16:04:30.821Z,97700.28
2023-03-12T16:06:57.284Z,97701.31
2023-03-12T16:09:33.176Z,97694.41
2023-03-12T16:11:59.649Z,97695.22
2023-03-12T16:14:36.151Z,97709.84
2023-03-12T16:17:02.821Z,97712.03
2023-03-12T16:19:33.565Z,97707.59
2023-03-12T16:22:00.081Z,97712.47
2023-03-12T16:24:26.553Z,97713.53
2023-03-12T16:26:58.871Z,97717.22
2023-03-12T16:29:43.430Z,97712.97
2023-03-12T16:32:16.893Z,97705.59
2023-03-12T16:34:45.421Z,97705.59
2023-03-12T16:37:12.993Z,97713.25
2023-03-12T16:39:40.223Z,97717.22
2023-03-12T16:42:17.350Z,97713.53
2023-03-12T16:44:46.667Z,97724.75
2023-03-12T16:47:14.560Z,97723.69
2023-03-12T16:49:41.449Z,97722.13
2023-03-12T16:52:20.827Z,97718.56
2023-03-12T16:54:51.564Z,97727.06
2023-03-12T16:57:32.456Z,97726.53
2023-03-12T17:00:01.201Z,97731.69
2023-03-12T17:02:29.689Z,97734.69
2023-03-12T17:04:56.633Z,97737.97
2023-03-12T17:07:23.528Z,97737.03
2023-03-12T17:09:50.049Z,97735.97
2023-03-12T17:12:36.195Z,97744.28
2023-03-12T17:15:11.712Z,97747.72
2023-03-12T17:17:38.311Z,97743.09
2023-03-12T17:20:08.513Z,97747.25
2023-03-12T17:22:34.990Z,97743.50
2023-03-12T17:25:01.757Z,97750.13
2023-03-12T17:27:28.728Z,97742.03
2023-03-12T17:29:55.358Z,97761.56
2023-03-12T17:32:21.967Z,97752.94
2023-03-12T17:34:56.739Z,97754.22
2023-03-12T17:37:23.395Z,97762.53
2023-03-12T17:39:49.860Z,97758.50
2023-03-12T17:42:16.508Z,97759.22
2023-03-12T17:44:42.972Z,97767.59
2023-03-12T17:47:09.488Z,97770.97
2023-03-12T17:49:36.124Z,97776.94
2023-03-12T17:52:03.214Z,97778.84
2023-03-12T17:54:30.097Z,97779.75
2023-03-12T17:56:56.584Z,97782.09
2023-03-12T17:59:23.067Z,97777.59
2023-03-12T18:01:49.522Z,97776.56
2023-03-12T18:04:16.096Z,97770.97
2023-03-12T18:06:42.620Z,97767.09
2023-03-12T18:09:09.090Z,97776.13
2023-03-12T18:11:35.533Z,97776.13
2023-03-12T18:14:02.105Z,97773.22
2023-03-12T18:16:28.892Z,97773.00
2023-03-12T18:18:55.480Z,97782.56
2023-03-12T18:21:22.036Z,97778.47
2023-03-12T18:23:48.608Z,97782.88
2023-03-12T18:26:15.135Z,97791.03
2023-03-12T18:28:42.343Z,97800.69
2023-03-12T18:31:09.628Z,97799.41
2023-03-12T18:33:37.223Z,97795.94
2023-03-12T18:36:04.946Z,97804.06
2023-03-12T18:38:32.638Z,97809.81
2023-03-12T18:41:05.319Z,97800.69
2023-03-12T18:43:32.983Z,97808.03
2023-03-12T18:45:59.458Z,97803.81
2023-03-12T18:48:26.405Z,97804.66
2023-03-12T18:50:53.536Z,97803.59
2023-03-12T18:53:20.716Z,97806.19
2023-03-12T18:55:58.305Z,97805.94
2023-03-12T18:58:27.853Z,97801.94
2023-03-12T19:00:56.911Z,97790.72
2023-03-12T19:03:25.170Z,97788.66
2023-03-12T19:06:10.777Z,97787.03
2023-03-12T19:08:38.014Z,97798.63
2023-03-12T19:11:08.289Z,97801.13
2023-03-12T19:13:35.300Z,97797.25
2023-03-12T19:16:05.956Z,97804.06
2023-03-12T19:18:35.264Z,97810.97
2023-03-12T19:21:02.391Z,97816.34
2023-03-12T19:23:29.453Z,97800.50
2023-03-12T19:25:55.983Z,97800.81
2023-03-12T19:28:22.526Z,97801.94
2023-03-12T19:30:49.215Z,97791.88
2023-03-12T19:33:15.706Z,97795.44
2023-03-12T19:35:42.926Z,97795.66
2023-03-12T19:38:09.619Z,97798.47
2023-03-12T19:40:36.151Z,97791.75
2023-03-12T19:43:03.165Z,97792.09
2023-03-12T19:45:29.956Z,97788.19
2023-03-12T19:47:56.731Z,97777.59
2023-03-12T19:50:24.036Z,97782.63
2023-03-12T19:52:50.572Z,97777.59
2023-03-12T19:55:17.401Z,97791.28
2023-03-12T19:57:43.951Z,97780.00
2023-03-12T20:00:12.124Z,97772.81
2023-03-12T20:02:39.499Z,97770.06
2023-03-12T20:05:07.866Z,97766.81
2023-03-12T20:07:35.053Z,97767.66
2023-03-12T20:10:01.676Z,97761.16
2023-03-12T20:12:28.285Z,97767.34
2023-03-12T20:14:54.870Z,97765.06
2023-03-12T20:17:21.372Z,97761.88
2023-03-12T20:19:47.855Z,97766.19
2023-03-12T20:22:14.589Z,97775.72
2023-03-12T20:24:41.262Z,97774.25
2023-03-12T20:27:07.810Z,97766.50
2023-03-12T20:29:34.321Z,97757.94
2023-03-12T20:32:00.876Z,97754.13
2023-03-12T20:34:27.427Z,97751.63
2023-03-12T20:36:54.135Z,97755.38
2023-03-12T20:39:20.837Z,97756.22
2023-03-12T20:41:49.805Z,97756.84
2023-03-12T20:44:16.858Z,97757.28
2023-03-12T20:46:43.317Z,97748.25
2023-03-12T20:49:10.083Z,97753.28
2023-03-12T20:51:36.565Z,97738.50
2023-03-12T20:54:03.174Z,97737.97
2023-03-12T20:56:29.722Z,97728.84
2023-03-12T20:58:57.105Z,97738.53
2023-03-12T21:03:58.631Z,97733.06
2023-03-12T21:06:26.031Z,97736.66
2023-03-12T21:08:56.088Z,97737.38
2023-03-12T21:11:22.909Z,97732.66
2023-03-12T21:13:49.455Z,97735.06
2023-03-12T21:16:16.060Z,97726.44
2023-03-12T21:18:42.584Z,97722.69
2023-03-12T21:21:09.356Z,97723.63
2023-03-12T21:23:36.936Z,97716.22
2023-03-12T21:26:09.251Z,97709.72
2023-03-12T21:28:36.185Z,97707.19
2023-03-12T21:31:13.436Z,97699.44
2023-03-12T21:33:40.126Z,97699.66
2023-03-12T21:36:10.996Z,97696.94
2023-03-12T21:38:39.453Z,97694.50
2023-03-12T21:41:17.007Z,97688.97
2023-03-12T21:43:45.332Z,97687.16
2023-03-12T21:46:19.483Z,97686.03
2023-03-12T21:48:48.128Z,97677.66
2023-03-12T21:51:17.766Z,97680.66
2023-03-12T21:53:44.458Z,97677.34
2023-03-12T21:56:11.817Z,97671.97
2023-03-12T21:58:38.592Z,97671.16
2023-03-12T22:01:18.602Z,97666.94
2023-03-12T22:03:46.262Z,97670.63
2023-03-12T22:06:15.304Z,97670.41
2023-03-12T22:08:43.539Z,97669.44
2023-03-12T22:11:10.546Z,97668.41
2023-03-12T22:13:37.936Z,97671.84
2023-03-12T22:16:08.251Z,97667.78
2023-03-12T22:18:40.761Z,97659.28
2023-03-12T22:21:08.966Z,97657.28
2023-03-12T22:23:37.061Z,97663.78
2023-03-12T22:26:07.830Z,97658.81
2023-03-12T22:28:35.064Z,97657.53
2023-03-12T22:31:07.942Z,97650.91
2023-03-12T22:33:36.422Z,97651.25
2023-03-12T22:36:10.091Z,97649.81
2023-03-12T22:38:38.191Z,97649.19
2023-03-12T22:41:31.336Z,97650.63
2023-03-12T22:44:04.968Z,97650.63
2023-03-12T22:46:31.948Z,97652.44
2023-03-12T22:49:01.679Z,97646.63
2023-03-12T22:51:31.474Z,97646.41
2023-03-12T22:53:58.085Z,97631.31
2023-03-12T22:56:24.836Z,97636.69
2023-03-12T22:58:51.584Z,97643.38
2023-03-12T23:01:21.089Z,97640.75
2023-03-12T23:03:48.703Z,97635.94
2023-03-12T23:06:25.386Z,97633.81
2023-03-12T23:08:54.722Z,97622.44
2023-03-12T23:11:25.036Z,97630.69
2023-03-12T23:13:52.625Z,97628.44
2023-03-12T23:16:23.074Z,97633.53
2023-03-12T23:18:50.162Z,97627.69
2023-03-12T23:21:21.232Z,97624.03
2023-03-12T23:23:48.811Z,97622.88
2023-03-12T23:26:20.087Z,97618.59
2023-03-12T23:28:47.445Z,97616.28
2023-03-12T23:31:17.552Z,97609.13
2023-03-12T23:33:44.878Z,97609.78
2023-03-12T23:36:15.861Z,97605.59
2023-03-12T23:38:43.279Z,97600.03
2023-03-12T23:41:17.044Z,97589.47
2023-03-12T23:43:44.614Z,97572.06
2023-03-12T23:46:13.318Z,97581.72
2023-03-12T23:48:40.986Z,97576.88
2023-03-12T23:51:17.237Z,97583.81
2023-03-12T23:53:48.226Z,97567.88
2023-03-12T23:56:19.601Z,97566.81
2023-03-12T23:58:48.056Z,97564.47
